createdAt,value
2018-05-10T00:00:58.000Z,21.85
2018-05-10T00:02:01.272Z,22.80
2018-05-10T00:03:03.744Z,21.37
2018-05-10T00:04:06.236Z,25.48
2018-05-10T00:05:09.804Z,26.85
2018-05-10T00:06:13.493Z,24.80
2018-05-10T00:07:16.752Z,23.00
2018-05-10T00:08:19.224Z,20.92
2018-05-10T00:09:21.988Z,22.48
2018-05-10T00:10:24.842Z,20.20
2018-05-10T00:11:27.625Z,19.20
2018-05-10T00:12:30.111Z,19.87
2018-05-10T00:13:32.592Z,19.08
2018-05-10T00:14:35.076Z,18.62
2018-05-10T00:15:39.876Z,22.48
2018-05-10T00:16:43.128Z,18.17
2018-05-10T00:17:45.595Z,22.33
2018-05-10T00:18:48.072Z,18.90
2018-05-10T00:19:50.560Z,16.20
2018-05-10T00:20:54.036Z,16.23
2018-05-10T00:21:57.287Z,16.55
2018-05-10T00:22:59.760Z,15.25
2018-05-10T00:24:02.228Z,19.25
2018-05-10T00:25:04.967Z,17.52
2018-05-10T00:26:08.973Z,16.42
2018-05-10T00:27:11.475Z,14.77
2018-05-10T00:28:13.948Z,16.12
2018-05-10T00:29:16.424Z,16.27
2018-05-10T00:30:19.239Z,16.17
2018-05-10T00:31:22.387Z,16.67
2018-05-10T00:32:25.636Z,17.12
2018-05-10T00:33:28.108Z,14.87
2018-05-10T00:34:30.575Z,15.95
2018-05-10T00:35:34.018Z,17.12
2018-05-10T00:36:36.528Z,17.05
2018-05-10T00:37:39.001Z,16.02
2018-05-10T00:38:41.472Z,15.77
2018-05-10T00:39:44.709Z,18.12
2018-05-10T00:40:47.515Z,19.87
2018-05-10T00:41:50.776Z,18.30
2018-05-10T00:42:53.252Z,16.37
2018-05-10T00:43:55.720Z,20.20
2018-05-10T00:44:58.200Z,20.10
2018-05-10T00:46:02.406Z,20.98
2018-05-10T00:47:05.668Z,16.08
2018-05-10T00:48:08.140Z,20.40
2018-05-10T00:49:10.611Z,16.85
2018-05-10T00:50:13.432Z,16.90
2018-05-10T00:51:16.715Z,17.08
2018-05-10T00:52:19.216Z,18.20
2018-05-10T00:53:21.688Z,16.98
2018-05-10T00:54:36.176Z,20.02
2018-05-10T00:55:39.725Z,18.65
2018-05-10T00:56:42.991Z,18.35
2018-05-10T00:57:45.463Z,22.08
2018-05-10T00:58:47.936Z,21.33
2018-05-10T00:59:50.412Z,21.20
2018-05-10T01:00:53.745Z,23.60
2018-05-10T01:01:56.264Z,21.70
2018-05-10T01:02:59.504Z,24.08
2018-05-10T01:04:01.986Z,23.02
2018-05-10T01:05:05.647Z,22.27
2018-05-10T01:06:08.466Z,25.20
2018-05-10T01:07:11.745Z,25.73
2018-05-10T01:08:14.220Z,24.52
2018-05-10T01:09:16.687Z,25.62
2018-05-10T01:10:20.155Z,25.23
2018-05-10T01:11:23.606Z,26.42
2018-05-10T01:12:26.139Z,26.60
2018-05-10T01:13:29.375Z,30.23
2018-05-10T01:14:31.855Z,28.15
2018-05-10T01:15:34.637Z,28.38
2018-05-10T01:16:37.893Z,27.95
2018-05-10T01:17:40.380Z,29.15
2018-05-10T01:18:42.855Z,27.67
2018-05-10T01:19:45.327Z,28.12
2018-05-10T01:20:49.620Z,29.37
2018-05-10T01:21:52.874Z,35.47
2018-05-10T01:22:55.360Z,30.95
2018-05-10T01:23:57.828Z,31.30
2018-05-10T01:25:00.309Z,28.23
2018-05-10T01:26:03.021Z,31.02
2018-05-10T01:27:05.528Z,31.75
2018-05-10T01:28:08.025Z,28.75
2018-05-10T01:29:11.320Z,30.42
2018-05-10T01:30:14.869Z,28.48
2018-05-10T01:31:18.413Z,30.92
2018-05-10T01:32:20.928Z,32.33
2018-05-10T01:33:23.416Z,32.85
2018-05-10T01:34:26.652Z,30.50
2018-05-10T01:35:41.270Z,30.15
2018-05-10T01:36:43.775Z,28.42
2018-05-10T01:37:46.244Z,31.85
2018-05-10T01:38:48.732Z,31.48
2018-05-10T01:39:51.972Z,31.52
2018-05-10T01:40:54.618Z,31.77
2018-05-10T01:41:57.112Z,30.23
2018-05-10T01:42:59.584Z,32.58
2018-05-10T01:44:02.080Z,32.63
2018-05-10T01:45:04.833Z,33.38
2018-05-10T01:46:08.380Z,29.37
2018-05-10T01:47:10.870Z,30.83
2018-05-10T01:48:13.340Z,33.00
2018-05-10T01:49:15.828Z,33.92
2018-05-10T01:50:19.985Z,32.95
2018-05-10T01:51:22.651Z,33.85
2018-05-10T01:52:25.152Z,32.45
2018-05-10T01:53:27.623Z,30.02
2018-05-10T01:54:30.116Z,31.80
2018-05-10T01:55:33.624Z,29.92
2018-05-10T01:56:36.121Z,32.33
2018-05-10T01:57:38.593Z,26.50
2018-05-10T01:58:41.059Z,27.15
2018-05-10T01:59:43.548Z,30.20
2018-05-10T02:00:46.957Z,28.08
2018-05-10T02:01:49.448Z,33.85
2018-05-10T02:02:51.916Z,29.48
2018-05-10T02:03:54.383Z,27.67
2018-05-10T02:04:57.112Z,27.27
2018-05-10T02:06:00.655Z,28.17
2018-05-10T02:07:03.144Z,26.87
2018-05-10T02:08:05.616Z,29.45
2018-05-10T02:09:08.847Z,25.00
2018-05-10T02:10:11.604Z,26.85
2018-05-10T02:11:14.376Z,27.20
2018-05-10T02:12:16.867Z,26.92
2018-05-10T02:13:19.340Z,25.40
2018-05-10T02:14:21.811Z,26.30
2018-05-10T02:15:24.745Z,25.00
2018-05-10T02:16:28.144Z,28.60
2018-05-10T02:17:30.611Z,27.08
2018-05-10T02:18:33.079Z,25.48
2018-05-10T02:19:35.547Z,25.20
2018-05-10T02:20:38.296Z,26.25
2018-05-10T02:21:40.796Z,26.25
2018-05-10T02:22:43.264Z,23.87
2018-05-10T02:23:45.732Z,25.65
2018-05-10T02:24:48.204Z,27.70
2018-05-10T02:25:50.923Z,25.17
2018-05-10T02:26:53.428Z,24.55
2018-05-10T02:27:55.896Z,26.40
2018-05-10T02:28:58.368Z,25.52
2018-05-10T02:30:00.836Z,24.63
2018-05-10T02:31:03.561Z,25.73
2018-05-10T02:32:06.052Z,22.80
2018-05-10T02:33:08.520Z,26.02
2018-05-10T02:34:10.992Z,24.12
2018-05-10T02:35:13.817Z,26.70
2018-05-10T02:36:17.411Z,23.67
2018-05-10T02:37:19.909Z,23.73
2018-05-10T02:38:22.380Z,21.40
2018-05-10T02:39:24.848Z,24.80
2018-05-10T02:40:27.675Z,22.60
2018-05-10T02:41:30.203Z,22.70
2018-05-10T02:42:32.672Z,24.12
2018-05-10T02:43:35.910Z,22.90
2018-05-10T02:44:38.384Z,24.60
2018-05-10T02:45:41.053Z,25.98
2018-05-10T02:46:43.626Z,24.15
2018-05-10T02:47:46.092Z,24.33
2018-05-10T02:48:48.561Z,26.87
2018-05-10T02:49:51.032Z,23.10
2018-05-10T02:50:53.751Z,24.08
2018-05-10T02:51:56.263Z,23.08
2018-05-10T02:52:58.735Z,24.45
2018-05-10T02:54:01.204Z,22.27
2018-05-10T02:55:04.016Z,21.20
2018-05-10T02:56:06.830Z,21.25
2018-05-10T02:57:09.336Z,20.80
2018-05-10T02:58:12.572Z,26.23
2018-05-10T02:59:15.040Z,23.40
2018-05-10T03:00:17.780Z,25.33
2018-05-10T03:01:20.547Z,22.52
2018-05-10T03:02:23.064Z,24.90
2018-05-10T03:03:25.532Z,20.73
2018-05-10T03:04:28.004Z,27.15
2018-05-10T03:05:31.471Z,25.42
2018-05-10T03:06:33.961Z,23.05
2018-05-10T03:07:37.212Z,21.37
2018-05-10T03:08:39.679Z,22.77
2018-05-10T03:09:42.147Z,23.12
2018-05-10T03:10:44.973Z,21.62
2018-05-10T03:11:47.480Z,23.77
2018-05-10T03:12:49.968Z,23.75
2018-05-10T03:13:53.207Z,23.98
2018-05-10T03:14:55.676Z,24.90
2018-05-10T03:15:58.469Z,26.87
2018-05-10T03:17:01.722Z,24.40
2018-05-10T03:18:04.252Z,22.13
2018-05-10T03:19:07.488Z,25.92
2018-05-10T03:20:10.140Z,23.17
2018-05-10T03:21:12.994Z,23.35
2018-05-10T03:22:15.480Z,23.83
2018-05-10T03:23:17.968Z,21.80
2018-05-10T03:24:20.440Z,25.02
2018-05-10T03:25:23.306Z,25.05
2018-05-10T03:26:26.034Z,22.35
2018-05-10T03:27:28.535Z,26.90
2018-05-10T03:28:31.019Z,23.87
2018-05-10T03:29:34.291Z,24.05
2018-05-10T03:30:37.064Z,26.73
2018-05-10T03:31:40.320Z,22.87
2018-05-10T03:32:42.792Z,22.67
2018-05-10T03:33:45.287Z,27.27
2018-05-10T03:34:47.755Z,25.27
2018-05-10T03:35:51.178Z,25.65
2018-05-10T03:36:53.668Z,26.67
2018-05-10T03:37:56.141Z,26.85
2018-05-10T03:38:58.627Z,24.85
2018-05-10T03:40:02.799Z,24.15
2018-05-10T03:41:05.590Z,27.55
2018-05-10T03:42:08.072Z,23.23
2018-05-10T03:43:10.542Z,24.60
2018-05-10T03:44:13.803Z,24.92
2018-05-10T03:45:16.466Z,27.73
2018-05-10T03:46:19.965Z,25.12
2018-05-10T03:47:23.248Z,26.58
2018-05-10T03:48:25.722Z,28.87
2018-05-10T03:49:28.268Z,32.88
2018-05-10T03:50:30.901Z,26.17
2018-05-10T03:51:33.404Z,27.08
2018-05-10T03:52:35.872Z,28.62
2018-05-10T03:53:38.342Z,26.90
2018-05-10T03:54:40.827Z,27.17
2018-05-10T03:55:44.348Z,26.50
2018-05-10T03:56:46.848Z,27.85
2018-05-10T03:57:49.319Z,28.17
2018-05-10T03:58:51.787Z,26.50
2018-05-10T03:59:54.280Z,27.37
2018-05-10T04:00:57.733Z,28.15
2018-05-10T04:02:00.224Z,29.12
2018-05-10T04:05:01.340Z,26.80
2018-05-10T04:06:16.263Z,27.27
2018-05-10T04:07:31.422Z,23.85
2018-05-10T04:08:45.960Z,24.37
2018-05-10T04:10:00.451Z,26.35
2018-05-10T04:11:12.300Z,26.35
2018-05-10T04:12:14.805Z,23.30
2018-05-10T04:13:17.271Z,27.60
2018-05-10T04:14:19.744Z,26.58
2018-05-10T04:15:23.474Z,26.45
2018-05-10T04:16:26.197Z,24.27
2018-05-10T04:17:29.448Z,23.27
2018-05-10T04:18:31.920Z,22.58
2018-05-10T04:19:34.440Z,23.40
2018-05-10T04:20:37.274Z,27.00
2018-05-10T04:21:39.764Z,24.17
2018-05-10T04:22:42.232Z,25.88
2018-05-10T04:23:44.715Z,27.35
2018-05-10T04:24:47.951Z,22.48
2018-05-10T04:25:50.793Z,22.08
2018-05-10T04:26:53.283Z,21.83
2018-05-10T04:27:55.833Z,24.02
2018-05-10T04:28:58.239Z,22.08
2018-05-10T04:30:00.708Z,25.10
2018-05-10T04:31:03.412Z,23.50
2018-05-10T04:32:05.904Z,23.55
2018-05-10T04:33:08.376Z,21.65
2018-05-10T04:34:10.848Z,21.80
2018-05-10T04:35:13.734Z,21.25
2018-05-10T04:36:16.664Z,23.40
2018-05-10T04:37:19.165Z,22.77
2018-05-10T04:38:21.631Z,23.30
2018-05-10T04:39:24.105Z,21.50
2018-05-10T04:40:26.828Z,22.45
2018-05-10T04:41:29.415Z,18.30
2018-05-10T04:42:31.888Z,19.73
2018-05-10T04:43:34.360Z,21.35
2018-05-10T04:44:36.831Z,17.75
2018-05-10T04:45:39.660Z,19.15
2018-05-10T04:46:42.185Z,19.62
2018-05-10T04:47:45.424Z,22.52
2018-05-10T04:48:47.895Z,20.33
2018-05-10T04:49:50.375Z,17.50
2018-05-10T04:50:53.008Z,18.20
2018-05-10T04:51:55.524Z,16.92
2018-05-10T04:52:57.991Z,19.08
2018-05-10T04:54:01.230Z,18.70
2018-05-10T04:55:03.971Z,18.48
2018-05-10T04:56:07.627Z,17.30
2018-05-10T04:57:10.136Z,17.52
2018-05-10T04:58:12.605Z,16.45
2018-05-10T04:59:15.072Z,15.93
2018-05-10T05:00:17.846Z,15.23
2018-05-10T05:01:20.720Z,15.27
2018-05-10T05:02:23.235Z,18.73
2018-05-10T05:03:25.722Z,16.92
2018-05-10T05:04:28.183Z,13.95
2018-05-10T05:05:30.890Z,13.85
2018-05-10T05:06:33.385Z,15.80
2018-05-10T05:07:35.878Z,15.52
2018-05-10T05:08:38.356Z,16.90
2018-05-10T05:09:41.597Z,17.08
2018-05-10T05:10:44.250Z,17.10
2018-05-10T05:11:46.763Z,14.52
2018-05-10T05:12:50.020Z,15.50
2018-05-10T05:13:52.488Z,18.08
2018-05-10T05:14:54.959Z,13.20
2018-05-10T05:15:57.677Z,15.57
2018-05-10T05:17:00.175Z,15.38
2018-05-10T05:18:02.668Z,23.10
2018-05-10T05:19:05.144Z,16.75
2018-05-10T05:20:08.556Z,19.35
2018-05-10T05:21:11.664Z,17.90
2018-05-10T05:22:14.159Z,19.42
2018-05-10T05:23:16.654Z,18.33
2018-05-10T05:24:19.890Z,19.42
2018-05-10T05:25:22.516Z,17.45
2018-05-10T05:26:25.289Z,20.95
2018-05-10T05:27:27.800Z,19.48
2018-05-10T05:28:30.283Z,18.98
2018-05-10T05:29:33.568Z,17.52
2018-05-10T05:30:37.093Z,20.35
2018-05-10T05:31:39.588Z,20.12
2018-05-10T05:32:42.071Z,23.50
2018-05-10T05:33:44.556Z,18.67
2018-05-10T05:34:47.049Z,23.00
2018-05-10T05:35:50.443Z,21.00
2018-05-10T05:36:52.937Z,21.65
2018-05-10T05:37:55.407Z,22.95
2018-05-10T05:38:57.905Z,18.80
2018-05-10T05:40:01.139Z,20.42
2018-05-10T05:41:03.960Z,21.67
2018-05-10T05:42:07.200Z,19.75
2018-05-10T05:43:09.673Z,23.02
2018-05-10T05:44:12.164Z,23.70
2018-05-10T05:45:15.786Z,21.95
2018-05-10T05:46:18.596Z,19.58
2018-05-10T05:47:21.087Z,23.85
2018-05-10T05:48:24.335Z,22.30
2018-05-10T05:49:26.828Z,24.08
2018-05-10T05:50:29.559Z,24.70
2018-05-10T05:51:32.043Z,24.23
2018-05-10T05:52:34.512Z,24.50
2018-05-10T05:53:36.984Z,24.92
2018-05-10T05:54:39.552Z,23.00
2018-05-10T05:55:43.041Z,28.62
2018-05-10T05:56:46.296Z,26.17
2018-05-10T05:57:48.775Z,27.27
2018-05-10T05:58:51.243Z,27.20
2018-05-10T05:59:53.733Z,28.12
2018-05-10T06:00:57.359Z,26.02
2018-05-10T06:01:59.786Z,29.37
2018-05-10T06:03:03.025Z,30.42
2018-05-10T06:04:05.491Z,25.92
2018-05-10T06:05:08.285Z,28.95
2018-05-10T06:06:11.830Z,29.87
2018-05-10T06:07:14.333Z,28.10
2018-05-10T06:08:16.799Z,28.55
2018-05-10T06:09:19.271Z,29.20
2018-05-10T06:10:22.044Z,29.73
2018-05-10T06:11:25.584Z,29.05
2018-05-10T06:12:28.076Z,31.25
2018-05-10T06:13:30.548Z,31.23
2018-05-10T06:14:33.020Z,31.00
2018-05-10T06:15:35.806Z,27.67
2018-05-10T06:16:38.321Z,31.80
2018-05-10T06:17:40.791Z,34.15
2018-05-10T06:18:43.265Z,33.05
2018-05-10T06:19:45.731Z,28.38
2018-05-10T06:20:48.905Z,29.98
2018-05-10T06:21:51.391Z,30.37
2018-05-10T06:22:53.859Z,28.23
2018-05-10T06:23:56.337Z,28.77
2018-05-10T06:24:58.833Z,28.62
2018-05-10T06:26:01.517Z,30.30
2018-05-10T06:27:04.016Z,30.42
2018-05-10T06:28:06.487Z,30.33
2018-05-10T06:29:08.954Z,29.70
2018-05-10T06:30:12.501Z,27.10
2018-05-10T06:31:15.608Z,24.35
2018-05-10T06:32:18.100Z,23.73
2018-05-10T06:33:20.569Z,28.00
2018-05-10T06:34:24.549Z,27.73
2018-05-10T06:35:27.279Z,24.15
2018-05-10T06:36:29.852Z,30.70
2018-05-10T06:37:32.324Z,28.62
2018-05-10T06:38:34.795Z,26.02
2018-05-10T06:39:37.301Z,30.75
2018-05-10T06:40:41.474Z,30.42
2018-05-10T06:41:43.980Z,24.02
2018-05-10T06:42:47.215Z,31.00
2018-05-10T06:43:49.684Z,27.17
2018-05-10T06:44:52.161Z,24.83
2018-05-10T06:45:54.993Z,24.37
2018-05-10T06:46:57.575Z,21.40
2018-05-10T06:48:00.784Z,24.17
2018-05-10T06:49:03.259Z,26.02
2018-05-10T06:50:05.903Z,20.95
2018-05-10T06:51:09.476Z,19.70
2018-05-10T06:52:12.008Z,21.60
2018-05-10T06:53:15.240Z,22.70
2018-05-10T06:54:17.712Z,18.92
2018-05-10T06:55:20.448Z,24.63
2018-05-10T06:56:23.008Z,20.77
2018-05-10T06:57:25.515Z,24.98
2018-05-10T06:58:27.983Z,21.85
2018-05-10T06:59:30.456Z,25.20
2018-05-10T07:00:33.197Z,29.85
2018-05-10T07:01:35.684Z,26.42
2018-05-10T07:02:38.264Z,24.40
2018-05-10T07:03:40.736Z,24.17
2018-05-10T07:04:43.971Z,21.55
2018-05-10T07:05:46.773Z,25.85
2018-05-10T07:06:50.039Z,26.87
2018-05-10T07:07:52.532Z,20.20
2018-05-10T07:08:55.008Z,24.65
2018-05-10T07:09:57.736Z,29.90
2018-05-10T07:11:01.044Z,28.02
2018-05-10T07:12:04.296Z,25.75
2018-05-10T07:13:06.868Z,23.27
2018-05-10T07:14:09.339Z,25.52
2018-05-10T07:15:12.084Z,23.42
2018-05-10T07:16:15.364Z,25.35
2018-05-10T07:17:17.871Z,26.12
2018-05-10T07:18:20.355Z,23.20
2018-05-10T07:19:23.596Z,27.67
2018-05-10T07:20:26.348Z,23.92
2018-05-10T07:21:28.863Z,19.45
2018-05-10T07:22:31.340Z,24.23
2018-05-10T07:23:34.595Z,23.35
2018-05-10T07:24:37.064Z,25.85
2018-05-10T07:25:39.795Z,24.70
2018-05-10T07:26:42.296Z,24.67
2018-05-10T07:27:44.773Z,22.50
2018-05-10T07:28:47.320Z,20.98
2018-05-10T07:29:49.791Z,23.33
2018-05-10T07:30:52.540Z,29.42
2018-05-10T07:31:55.028Z,25.40
2018-05-10T07:32:57.561Z,22.73
2018-05-10T07:34:00.001Z,25.65
2018-05-10T07:35:03.253Z,28.45
2018-05-10T07:36:06.792Z,26.60
2018-05-10T07:37:09.304Z,25.33
2018-05-10T07:38:11.776Z,28.27
2018-05-10T07:39:14.267Z,28.15
2018-05-10T07:40:17.775Z,29.50
2018-05-10T07:41:20.695Z,28.92
2018-05-10T07:42:23.967Z,28.12
2018-05-10T07:43:26.436Z,31.52
2018-05-10T07:44:28.935Z,30.73
2018-05-10T07:45:32.358Z,32.65
2018-05-10T07:46:34.848Z,33.35
2018-05-10T07:47:37.316Z,33.92
2018-05-10T07:48:39.784Z,37.15
2018-05-10T07:49:42.271Z,33.10
2018-05-10T07:50:45.814Z,39.88
2018-05-10T07:51:48.304Z,34.35
2018-05-10T07:52:50.776Z,35.67
2018-05-10T07:53:53.248Z,34.70
2018-05-10T07:54:56.503Z,35.45
2018-05-10T07:55:59.245Z,35.10
2018-05-10T07:57:01.747Z,38.40
2018-05-10T07:58:04.218Z,33.67
2018-05-10T07:59:06.696Z,32.55
2018-05-10T08:00:11.866Z,33.47
2018-05-10T08:01:14.739Z,34.45
2018-05-10T08:02:17.315Z,34.60
2018-05-10T08:03:21.239Z,31.83
2018-05-10T08:04:23.712Z,34.42
2018-05-10T08:05:26.541Z,33.97
2018-05-10T08:06:29.108Z,32.72
2018-05-10T08:07:31.572Z,34.50
2018-05-10T08:08:34.044Z,34.47
2018-05-10T08:09:36.511Z,36.35
2018-05-10T08:10:39.319Z,31.33
2018-05-10T08:11:42.578Z,32.05
2018-05-10T08:12:45.048Z,36.13
2018-05-10T08:13:47.520Z,28.75
2018-05-10T08:14:49.992Z,27.50
2018-05-10T08:15:53.232Z,30.40
2018-05-10T08:16:55.765Z,29.12
2018-05-10T08:17:58.203Z,27.65
2018-05-10T08:19:00.680Z,24.12
2018-05-10T08:20:03.294Z,24.10
2018-05-10T08:21:06.038Z,23.45
2018-05-10T08:22:08.535Z,21.60
2018-05-10T08:23:11.009Z,18.23
2018-05-10T08:24:13.489Z,17.20
2018-05-10T08:25:16.331Z,18.73
2018-05-10T08:26:19.141Z,16.80
2018-05-10T08:27:21.683Z,18.12
2018-05-10T08:28:24.152Z,17.58
2018-05-10T08:29:30.660Z,18.75
2018-05-10T08:30:34.074Z,13.98
2018-05-10T08:31:36.575Z,17.17
2018-05-10T08:32:39.054Z,13.48
2018-05-10T08:33:41.523Z,15.77
2018-05-10T08:34:43.996Z,14.18
2018-05-10T08:35:48.281Z,13.52
2018-05-10T08:36:50.877Z,13.00
2018-05-10T08:37:54.023Z,16.15
2018-05-10T08:38:56.492Z,11.70
2018-05-10T08:39:58.956Z,13.35
2018-05-10T08:41:01.693Z,11.48
2018-05-10T08:42:04.224Z,9.07
2018-05-10T08:43:07.466Z,11.32
2018-05-10T08:44:09.932Z,10.65
2018-05-10T08:45:12.674Z,10.75
2018-05-10T08:46:15.547Z,11.32
2018-05-10T08:47:18.092Z,10.68
2018-05-10T08:48:21.321Z,8.98
2018-05-10T08:49:23.788Z,10.38
2018-05-10T08:50:26.530Z,9.32
2018-05-10T08:51:29.332Z,8.13
2018-05-10T08:52:31.808Z,8.02
2018-05-10T08:53:34.268Z,8.77
2018-05-10T08:54:36.732Z,8.05
2018-05-10T08:55:39.467Z,6.03
2018-05-10T08:56:41.955Z,6.00
2018-05-10T08:57:44.456Z,9.45
2018-05-10T08:58:47.688Z,3.80
2018-05-10T08:59:50.226Z,8.30
2018-05-10T09:00:52.985Z,4.18
2018-05-10T09:01:56.227Z,6.97
2018-05-10T09:02:58.736Z,4.68
2018-05-10T09:04:01.968Z,6.82
2018-05-10T09:05:04.614Z,7.20
2018-05-10T09:06:07.385Z,5.22
2018-05-10T09:07:09.885Z,5.43
2018-05-10T09:08:12.368Z,5.47
2018-05-10T09:09:14.828Z,5.10
2018-05-10T09:10:17.598Z,3.50
2018-05-10T09:11:21.037Z,4.40
2018-05-10T09:12:23.530Z,5.55
2018-05-10T09:13:26.008Z,5.75
2018-05-10T09:14:28.476Z,4.82
2018-05-10T09:15:31.303Z,5.07
2018-05-10T09:16:33.799Z,4.78
2018-05-10T09:17:36.263Z,4.25
2018-05-10T09:18:38.752Z,6.62
2018-05-10T09:19:42.728Z,5.78
2018-05-10T09:20:45.468Z,5.32
2018-05-10T09:21:47.964Z,4.70
2018-05-10T09:22:50.428Z,6.75
2018-05-10T09:23:52.915Z,6.30
2018-05-10T09:24:55.380Z,3.92
2018-05-10T09:25:59.374Z,5.75
2018-05-10T09:27:02.636Z,5.68
2018-05-10T09:28:05.095Z,5.62
2018-05-10T09:29:07.580Z,5.78
2018-05-10T09:30:10.221Z,5.80
2018-05-10T09:31:12.874Z,2.80
2018-05-10T09:32:15.364Z,7.70
2018-05-10T09:33:17.827Z,3.85
2018-05-10T09:34:20.328Z,6.57
2018-05-10T09:35:23.141Z,3.97
2018-05-10T09:36:25.912Z,4.37
2018-05-10T09:37:28.408Z,4.30
2018-05-10T09:38:30.872Z,5.75
2018-05-10T09:39:33.365Z,4.37
2018-05-10T09:40:36.900Z,6.72
2018-05-10T09:41:39.399Z,4.87
2018-05-10T09:42:41.863Z,4.55
2018-05-10T09:43:44.328Z,6.35
2018-05-10T09:44:46.885Z,6.35
2018-05-10T09:45:50.240Z,3.37
2018-05-10T09:46:52.719Z,5.20
2018-05-10T09:47:55.188Z,4.22
2018-05-10T09:48:57.683Z,7.32
2018-05-10T09:50:00.168Z,4.18
2018-05-10T09:51:03.697Z,7.10
2018-05-10T09:52:06.176Z,6.53
2018-05-10T09:53:08.647Z,5.50
2018-05-10T09:54:11.117Z,5.78
2018-05-10T09:55:13.901Z,9.63
2018-05-10T09:56:17.443Z,5.87
2018-05-10T09:57:19.944Z,6.10
2018-05-10T09:58:22.408Z,4.28
2018-05-10T09:59:24.876Z,7.10
2018-05-10T10:00:29.497Z,6.30
2018-05-10T10:01:32.751Z,7.10
2018-05-10T10:02:35.212Z,5.90
2018-05-10T10:03:37.680Z,3.67
2018-05-10T10:04:40.152Z,6.47
2018-05-10T10:05:42.940Z,7.90
2018-05-10T10:06:46.196Z,6.12
2018-05-10T10:07:48.664Z,4.65
2018-05-10T10:08:51.129Z,6.47
2018-05-10T10:09:53.588Z,3.50
2018-05-10T10:10:56.370Z,5.10
2018-05-10T10:11:58.847Z,3.65
2018-05-10T10:13:01.308Z,4.70
2018-05-10T10:14:03.780Z,5.45
2018-05-10T10:15:06.614Z,3.95
2018-05-10T10:16:09.430Z,5.50
2018-05-10T10:17:12.688Z,4.30
2018-05-10T10:18:15.206Z,6.62
2018-05-10T10:19:18.440Z,4.10
2018-05-10T10:20:21.847Z,4.15
2018-05-10T10:21:24.673Z,4.10
2018-05-10T10:22:27.176Z,3.75
2018-05-10T10:23:29.644Z,5.70
2018-05-10T10:24:32.108Z,5.72
2018-05-10T10:25:35.452Z,4.05
2018-05-10T10:26:37.972Z,4.18
2018-05-10T10:27:40.436Z,5.20
2018-05-10T10:28:42.899Z,5.90
2018-05-10T10:29:45.367Z,5.00
2018-05-10T10:30:48.694Z,5.22
2018-05-10T10:31:51.192Z,7.53
2018-05-10T10:32:53.660Z,5.60
2018-05-10T10:33:56.124Z,5.50
2018-05-10T10:34:58.590Z,5.80
2018-05-10T10:36:01.428Z,7.40
2018-05-10T10:37:03.948Z,4.20
2018-05-10T10:38:07.201Z,4.20
2018-05-10T10:39:09.656Z,5.07
2018-05-10T10:40:12.434Z,6.18
2018-05-10T10:41:15.999Z,8.32
2018-05-10T10:42:18.532Z,10.60
2018-05-10T10:43:21.768Z,8.25
2018-05-10T10:44:24.227Z,6.53
2018-05-10T10:45:26.989Z,6.25
2018-05-10T10:46:29.856Z,8.45
2018-05-10T10:47:32.388Z,5.28
2018-05-10T10:48:34.856Z,6.87
2018-05-10T10:49:37.319Z,6.75
2018-05-10T10:50:40.839Z,7.47
2018-05-10T10:51:43.332Z,13.20
2018-05-10T10:52:45.885Z,10.43
2018-05-10T10:53:48.351Z,11.75
2018-05-10T10:54:50.814Z,7.18
2018-05-10T10:55:53.620Z,6.43
2018-05-10T10:56:56.896Z,6.37
2018-05-10T10:57:59.384Z,9.38
2018-05-10T10:59:02.616Z,8.20
2018-05-10T11:00:05.416Z,8.85
2018-05-10T11:01:08.132Z,7.87
2018-05-10T11:02:10.625Z,8.55
2018-05-10T11:03:13.130Z,13.73
2018-05-10T11:04:16.360Z,11.75
2018-05-10T11:05:19.131Z,9.98
2018-05-10T11:06:21.836Z,9.95
2018-05-10T11:07:24.300Z,13.40
2018-05-10T11:08:26.942Z,15.25
2018-05-10T11:09:29.413Z,14.68
2018-05-10T11:10:32.190Z,16.25
2018-05-10T11:11:34.672Z,9.45
2018-05-10T11:12:37.135Z,12.27
2018-05-10T11:13:39.628Z,10.20
2018-05-10T11:14:42.087Z,9.90
2018-05-10T11:15:45.612Z,12.10
2018-05-10T11:16:48.112Z,12.68
2018-05-10T11:17:50.575Z,10.45
2018-05-10T11:18:53.064Z,10.75
2018-05-10T11:19:57.040Z,9.63
2018-05-10T11:20:59.701Z,11.77
2018-05-10T11:22:02.184Z,13.23
2018-05-10T11:23:04.651Z,9.90
2018-05-10T11:24:07.144Z,12.23
2018-05-10T11:25:10.964Z,11.85
2018-05-10T11:26:13.751Z,8.60
2018-05-10T11:27:16.249Z,9.30
2018-05-10T11:28:18.712Z,12.48
2018-05-10T11:29:21.204Z,10.20
2018-05-10T11:30:24.822Z,11.68
2018-05-10T11:31:27.592Z,11.15
2018-05-10T11:32:30.061Z,10.07
2018-05-10T11:33:32.528Z,12.73
2018-05-10T11:34:35.012Z,12.63
2018-05-10T11:35:37.647Z,13.50
2018-05-10T11:36:40.136Z,13.18
2018-05-10T11:37:42.604Z,16.70
2018-05-10T11:38:45.072Z,13.43
2018-05-10T11:39:47.571Z,13.07
2018-05-10T11:40:50.303Z,15.88
2018-05-10T11:41:52.792Z,11.73
2018-05-10T11:42:55.259Z,12.37
2018-05-10T11:43:57.780Z,11.70
2018-05-10T11:45:00.264Z,16.80
2018-05-10T11:46:03.014Z,15.43
2018-05-10T11:47:05.504Z,13.82
2018-05-10T11:48:07.971Z,15.30
2018-05-10T11:49:10.436Z,11.45
2018-05-10T11:50:13.279Z,13.18
2018-05-10T11:51:16.113Z,12.43
2018-05-10T11:52:19.367Z,12.20
2018-05-10T11:53:21.836Z,13.73
2018-05-10T11:54:24.304Z,18.48
2018-05-10T11:55:27.034Z,15.18
2018-05-10T11:56:29.568Z,16.90
2018-05-10T11:57:32.804Z,15.98
2018-05-10T11:58:35.273Z,17.37
2018-05-10T11:59:37.779Z,17.52
2018-05-10T12:00:41.573Z,20.23
2018-05-10T12:01:44.820Z,17.70
2018-05-10T12:02:47.288Z,18.00
2018-05-10T12:03:49.758Z,18.05
2018-05-10T12:04:52.220Z,13.35
2018-05-10T12:05:54.996Z,18.12
2018-05-10T12:06:57.476Z,17.62
2018-05-10T12:08:00.715Z,15.98
2018-05-10T12:09:03.180Z,14.10
2018-05-10T12:10:05.936Z,17.73
2018-05-10T12:11:08.708Z,16.35
2018-05-10T12:12:11.204Z,15.60
2018-05-10T12:13:13.673Z,18.45
2018-05-10T12:14:16.140Z,15.20
2018-05-10T12:15:18.974Z,18.12
2018-05-10T12:16:21.745Z,14.82
2018-05-10T12:17:24.246Z,18.55
2018-05-10T12:18:26.775Z,16.37
2018-05-10T12:19:29.255Z,13.45
2018-05-10T12:20:32.100Z,14.15
2018-05-10T12:21:34.620Z,14.30
2018-05-10T12:22:37.132Z,14.82
2018-05-10T12:23:40.363Z,17.20
2018-05-10T12:24:42.832Z,15.10
2018-05-10T12:25:45.562Z,14.25
2018-05-10T12:26:48.088Z,17.80
2018-05-10T12:27:51.327Z,18.20
2018-05-10T12:28:53.795Z,18.27
2018-05-10T12:29:56.264Z,21.17
2018-05-10T12:30:59.013Z,16.75
2018-05-10T12:32:01.576Z,14.95
2018-05-10T12:33:04.040Z,13.52
2018-05-10T12:34:06.512Z,16.75
2018-05-10T12:35:10.029Z,13.70
2018-05-10T12:36:12.820Z,14.15
2018-05-10T12:37:16.100Z,17.77
2018-05-10T12:38:18.568Z,17.80
2018-05-10T12:39:21.036Z,14.73
2018-05-10T12:40:23.852Z,15.00
2018-05-10T12:41:26.620Z,18.80
2018-05-10T12:42:29.156Z,16.15
2018-05-10T12:43:32.392Z,13.70
2018-05-10T12:44:34.860Z,17.98
2018-05-10T12:45:38.525Z,17.42
2018-05-10T12:46:41.016Z,13.88
2018-05-10T12:47:43.524Z,14.85
2018-05-10T12:48:46.837Z,17.05
2018-05-10T12:49:49.236Z,14.63
2018-05-10T12:50:51.878Z,20.48
2018-05-10T12:51:54.371Z,18.12
2018-05-10T12:52:56.887Z,19.98
2018-05-10T12:53:59.361Z,16.23
2018-05-10T12:55:01.932Z,15.18
2018-05-10T12:56:05.715Z,18.48
2018-05-10T12:57:08.928Z,17.42
2018-05-10T12:58:11.443Z,18.27
2018-05-10T12:59:14.679Z,27.25
2018-05-10T13:00:17.428Z,14.18
2018-05-10T13:01:21.139Z,21.25
2018-05-10T13:02:23.624Z,19.10
2018-05-10T13:03:26.131Z,15.93
2018-05-10T13:04:29.367Z,16.27
2018-05-10T13:05:32.103Z,19.20
2018-05-10T13:06:34.604Z,18.80
2018-05-10T13:07:37.072Z,23.45
2018-05-10T13:08:39.572Z,22.02
2018-05-10T13:09:42.807Z,16.48
2018-05-10T13:10:45.653Z,15.32
2018-05-10T13:11:48.156Z,19.95
2018-05-10T13:12:50.628Z,16.35
2018-05-10T13:13:53.129Z,19.73
2018-05-10T13:14:56.376Z,15.60
2018-05-10T13:15:59.129Z,17.30
2018-05-10T13:17:02.400Z,16.37
2018-05-10T13:18:04.871Z,19.30
2018-05-10T13:19:07.368Z,15.35
2018-05-10T13:20:10.186Z,20.37
2018-05-10T13:21:12.959Z,13.70
2018-05-10T13:22:15.464Z,15.05
2018-05-10T13:23:17.940Z,19.10
2018-05-10T13:24:20.423Z,18.02
2018-05-10T13:25:24.488Z,20.10
2018-05-10T13:26:27.951Z,20.88
2018-05-10T13:27:30.419Z,15.48
2018-05-10T13:28:32.887Z,17.52
2018-05-10T13:29:35.392Z,20.50
2018-05-10T13:30:38.105Z,17.87
2018-05-10T13:31:40.608Z,22.87
2018-05-10T13:32:43.081Z,19.52
2018-05-10T13:33:45.556Z,18.20
2018-05-10T13:34:48.048Z,21.75
2018-05-10T13:35:51.656Z,21.67